Stoufferstown, Pennsylvania
Current Conditions -  °F | °C
As of 6:53 AM on Sunday 23 Nov 2014 (Local Time) from KHGR Reporting Station
Clear Clear  
Wind Chill: 41°   Ceiling: Unl
Heat Index: 41°   Visibility: 10mi
Dew Point: 19°   Wind: 3mph
Humidity: 41%   Direction: 170°S
Pressure: 30.18"   Gusts: NA
Location:  39.9438°N, 77.6827°W
Report Text: KHGR 231153Z 17003KT 10SM CLR 05/M07 A3018 RMK AO2 SLP233 T00501072 10061 20033 51010
Loading
Personal Weather Stations






























Interactive Weather Map New forecast layout! Learn more

10-Day Weather Forecast

Advertisements
Track Severe Weather on mobile